Terminal Aerodrome Forecast
Issued by NWS Cleveland, OH

Home | Current Version | Previous Version | Text Only | Print | Product List | Glossary On
Versions: 1 2 3 4 5 6 7 8 9 10 11 12 13 14 15 16 17 18 19 20 21 22
000
FTUS41 KCLE 172300 RRA
TAFTOL
TAF
KTOL 172343Z 1800/1824 28003KT P6SM SCT090
     FM180200 24002KT P6SM SCT250
      TEMPO 1808/1812 5SM BR
     FM181400 36006KT P6SM FEW050 SCT200
     FM181800 03012KT P6SM FEW050 SCT200=

USA.gov is the U.S. government's official web portal to all federal, state and local government web resources and services.